sensor_id;sensor_type;location;lat;lon;timestamp;temperature;humidity
25250;DHT22;13201;51.148;13.738;2022-09-24T00:00:37;11.60;99.90
25250;DHT22;13201;51.148;13.738;2022-09-24T00:03:02;11.70;99.90
25250;DHT22;13201;51.148;13.738;2022-09-24T00:05:28;11.80;99.90
25250;DHT22;13201;51.148;13.738;2022-09-24T00:07:54;11.70;99.90
25250;DHT22;13201;51.148;13.738;2022-09-24T00:10:19;11.80;99.90
25250;DHT22;13201;51.148;13.738;2022-09-24T00:12:46;11.90;99.90
25250;DHT22;13201;51.148;13.738;2022-09-24T00:15:12;11.90;99.90
25250;DHT22;13201;51.148;13.738;2022-09-24T00:17:38;11.90;99.90
25250;DHT22;13201;51.148;13.738;2022-09-24T00:20:03;12.00;99.90
25250;DHT22;13201;51.148;13.738;2022-09-24T00:22:31;12.00;99.90
25250;DHT22;13201;51.148;13.738;2022-09-24T00:24:57;11.90;99.90
25250;DHT22;13201;51.148;13.738;2022-09-24T00:27:41;12.10;99.90
25250;DHT22;13201;51.148;13.738;2022-09-24T00:30:07;11.90;99.90
25250;DHT22;13201;51.148;13.738;2022-09-24T00:32:33;11.90;99.90
25250;DHT22;13201;51.148;13.738;2022-09-24T00:34:58;11.80;99.90
25250;DHT22;13201;51.148;13.738;2022-09-24T00:37:24;11.90;99.90
25250;DHT22;13201;51.148;13.738;2022-09-24T00:39:50;11.90;99.90
25250;DHT22;13201;51.148;13.738;2022-09-24T00:42:18;11.90;99.90
25250;DHT22;13201;51.148;13.738;2022-09-24T00:50:24;11.80;99.90
25250;DHT22;13201;51.148;13.738;2022-09-24T00:53:08;11.90;99.90
25250;DHT22;13201;51.148;13.738;2022-09-24T00:55:36;11.90;99.90
25250;DHT22;13201;51.148;13.738;2022-09-24T00:58:04;11.80;99.90
25250;DHT22;13201;51.148;13.738;2022-09-24T01:00:30;11.70;99.90
25250;DHT22;13201;51.148;13.738;2022-09-24T01:03:04;11.70;99.90
25250;DHT22;13201;51.148;13.738;2022-09-24T01:05:31;11.70;99.90
25250;DHT22;13201;51.148;13.738;2022-09-24T01:34:55;10.10;99.90
25250;DHT22;13201;51.148;13.738;2022-09-24T01:37:22;9.90;99.90
25250;DHT22;13201;51.148;13.738;2022-09-24T01:39:51;10.10;99.90
25250;DHT22;13201;51.148;13.738;2022-09-24T01:42:18;10.20;99.90
25250;DHT22;13201;51.148;13.738;2022-09-24T01:44:44;10.30;99.90
25250;DHT22;13201;51.148;13.738;2022-09-24T01:47:14;10.40;99.90
25250;DHT22;13201;51.148;13.738;2022-09-24T01:49:42;10.50;99.90
25250;DHT22;13201;51.148;13.738;2022-09-24T01:52:14;10.40;99.90
25250;DHT22;13201;51.148;13.738;2022-09-24T01:54:41;10.60;99.90
25250;DHT22;13201;51.148;13.738;2022-09-24T01:59:43;10.70;99.90
25250;DHT22;13201;51.148;13.738;2022-09-24T02:04:46;10.80;99.90
25250;DHT22;13201;51.148;13.738;2022-09-24T02:07:41;10.90;99.90
25250;DHT22;13201;51.148;13.738;2022-09-24T02:10:14;10.80;99.90
25250;DHT22;13201;51.148;13.738;2022-09-24T02:12:41;10.80;99.90
25250;DHT22;13201;51.148;13.738;2022-09-24T02:15:18;11.00;99.90
25250;DHT22;13201;51.148;13.738;2022-09-24T02:17:47;11.10;99.90
25250;DHT22;13201;51.148;13.738;2022-09-24T02:20:20;11.20;99.90
25250;DHT22;13201;51.148;13.738;2022-09-24T02:22:47;11.10;99.90
25250;DHT22;13201;51.148;13.738;2022-09-24T02:25:18;11.20;99.90
25250;DHT22;13201;51.148;13.738;2022-09-24T02:27:45;11.10;99.90
25250;DHT22;13201;51.148;13.738;2022-09-24T02:30:11;11.10;99.90
25250;DHT22;13201;51.148;13.738;2022-09-24T02:32:39;11.10;99.90
25250;DHT22;13201;51.148;13.738;2022-09-24T02:35:08;11.00;99.90
25250;DHT22;13201;51.148;13.738;2022-09-24T02:37:36;11.00;99.90
25250;DHT22;13201;51.148;13.738;2022-09-24T02:40:08;11.00;99.90
25250;DHT22;13201;51.148;13.738;2022-09-24T02:42:34;11.00;99.90
25250;DHT22;13201;51.148;13.738;2022-09-24T02:45:00;10.80;99.90
25250;DHT22;13201;51.148;13.738;2022-09-24T02:47:28;11.00;99.90
25250;DHT22;13201;51.148;13.738;2022-09-24T02:49:54;10.90;99.90
25250;DHT22;13201;51.148;13.738;2022-09-24T02:52:21;11.00;99.90
25250;DHT22;13201;51.148;13.738;2022-09-24T02:54:47;11.00;99.90
25250;DHT22;13201;51.148;13.738;2022-09-24T02:57:14;11.00;99.90
25250;DHT22;13201;51.148;13.738;2022-09-24T02:59:40;11.10;99.90
25250;DHT22;13201;51.148;13.738;2022-09-24T03:02:06;11.00;99.90
25250;DHT22;13201;51.148;13.738;2022-09-24T03:04:31;10.90;99.90
25250;DHT22;13201;51.148;13.738;2022-09-24T03:06:57;10.80;99.90
25250;DHT22;13201;51.148;13.738;2022-09-24T03:09:23;10.90;99.90
25250;DHT22;13201;51.148;13.738;2022-09-24T03:11:48;10.90;99.90
25250;DHT22;13201;51.148;13.738;2022-09-24T03:14:14;10.80;99.90
25250;DHT22;13201;51.148;13.738;2022-09-24T03:16:40;10.70;99.90
25250;DHT22;13201;51.148;13.738;2022-09-24T03:19:06;10.80;99.90
25250;DHT22;13201;51.148;13.738;2022-09-24T03:21:32;10.80;99.90
25250;DHT22;13201;51.148;13.738;2022-09-24T03:23:57;10.80;99.90
25250;DHT22;13201;51.148;13.738;2022-09-24T03:26:25;10.90;99.90
25250;DHT22;13201;51.148;13.738;2022-09-24T03:28:50;10.80;99.90
25250;DHT22;13201;51.148;13.738;2022-09-24T03:31:17;10.80;99.90
25250;DHT22;13201;51.148;13.738;2022-09-24T03:33:47;10.70;99.90
25250;DHT22;13201;51.148;13.738;2022-09-24T03:36:17;10.70;99.90
25250;DHT22;13201;51.148;13.738;2022-09-24T03:38:46;10.60;99.90
25250;DHT22;13201;51.148;13.738;2022-09-24T03:41:13;10.70;99.90
25250;DHT22;13201;51.148;13.738;2022-09-24T03:43:39;10.60;99.90
25250;DHT22;13201;51.148;13.738;2022-09-24T03:46:06;10.50;99.90
25250;DHT22;13201;51.148;13.738;2022-09-24T03:48:34;10.50;99.90
25250;DHT22;13201;51.148;13.738;2022-09-24T03:51:05;10.60;99.90
25250;DHT22;13201;51.148;13.738;2022-09-24T03:53:31;10.50;99.90
25250;DHT22;13201;51.148;13.738;2022-09-24T03:55:57;10.50;99.90
25250;DHT22;13201;51.148;13.738;2022-09-24T03:58:24;10.50;99.90
25250;DHT22;13201;51.148;13.738;2022-09-24T04:00:54;10.50;99.90
25250;DHT22;13201;51.148;13.738;2022-09-24T04:03:23;10.50;99.90
25250;DHT22;13201;51.148;13.738;2022-09-24T04:05:49;10.50;99.90
25250;DHT22;13201;51.148;13.738;2022-09-24T04:08:19;10.40;99.90
25250;DHT22;13201;51.148;13.738;2022-09-24T04:10:46;10.40;99.90
25250;DHT22;13201;51.148;13.738;2022-09-24T04:13:12;10.50;99.90
25250;DHT22;13201;51.148;13.738;2022-09-24T04:15:37;10.40;99.90
25250;DHT22;13201;51.148;13.738;2022-09-24T04:18:03;10.50;99.90
25250;DHT22;13201;51.148;13.738;2022-09-24T04:20:29;10.60;99.90
25250;DHT22;13201;51.148;13.738;2022-09-24T04:22:56;10.60;99.90
25250;DHT22;13201;51.148;13.738;2022-09-24T04:25:26;10.60;99.90
25250;DHT22;13201;51.148;13.738;2022-09-24T04:27:57;10.60;99.90
25250;DHT22;13201;51.148;13.738;2022-09-24T04:30:24;10.40;99.90
25250;DHT22;13201;51.148;13.738;2022-09-24T04:32:51;10.40;99.90
25250;DHT22;13201;51.148;13.738;2022-09-24T04:35:21;10.40;99.90
25250;DHT22;13201;51.148;13.738;2022-09-24T04:37:47;10.30;99.90
25250;DHT22;13201;51.148;13.738;2022-09-24T04:40:14;10.20;99.90
25250;DHT22;13201;51.148;13.738;2022-09-24T04:42:41;10.30;99.90
25250;DHT22;13201;51.148;13.738;2022-09-24T04:45:08;10.10;99.90
25250;DHT22;13201;51.148;13.738;2022-09-24T04:47:35;10.10;99.90
25250;DHT22;13201;51.148;13.738;2022-09-24T04:50:02;10.10;99.90
25250;DHT22;13201;51.148;13.738;2022-09-24T04:52:29;10.10;99.90
25250;DHT22;13201;51.148;13.738;2022-09-24T04:55:00;10.10;99.90
25250;DHT22;13201;51.148;13.738;2022-09-24T04:57:27;10.10;99.90
25250;DHT22;13201;51.148;13.738;2022-09-24T04:59:54;10.00;99.90
25250;DHT22;13201;51.148;13.738;2022-09-24T05:02:20;10.00;99.90
25250;DHT22;13201;51.148;13.738;2022-09-24T05:04:45;10.00;99.90
25250;DHT22;13201;51.148;13.738;2022-09-24T05:07:12;10.00;99.90
25250;DHT22;13201;51.148;13.738;2022-09-24T05:09:37;10.00;99.90
25250;DHT22;13201;51.148;13.738;2022-09-24T05:12:04;10.00;99.90
25250;DHT22;13201;51.148;13.738;2022-09-24T05:14:29;10.00;99.90
25250;DHT22;13201;51.148;13.738;2022-09-24T05:16:56;10.10;99.90
25250;DHT22;13201;51.148;13.738;2022-09-24T05:19:22;10.00;99.90
25250;DHT22;13201;51.148;13.738;2022-09-24T05:21:48;10.10;99.90
25250;DHT22;13201;51.148;13.738;2022-09-24T05:24:13;10.10;99.90
25250;DHT22;13201;51.148;13.738;2022-09-24T05:26:39;10.20;99.90
25250;DHT22;13201;51.148;13.738;2022-09-24T05:29:23;10.20;99.90
25250;DHT22;13201;51.148;13.738;2022-09-24T05:31:49;10.20;99.90
25250;DHT22;13201;51.148;13.738;2022-09-24T05:34:15;10.30;99.90
25250;DHT22;13201;51.148;13.738;2022-09-24T05:36:41;10.30;99.90
25250;DHT22;13201;51.148;13.738;2022-09-24T05:39:08;10.20;99.90
25250;DHT22;13201;51.148;13.738;2022-09-24T05:41:34;10.40;99.90
25250;DHT22;13201;51.148;13.738;2022-09-24T05:43:59;10.40;99.90
25250;DHT22;13201;51.148;13.738;2022-09-24T05:46:26;10.60;99.90
25250;DHT22;13201;51.148;13.738;2022-09-24T05:48:51;10.60;99.90
25250;DHT22;13201;51.148;13.738;2022-09-24T05:51:17;10.60;99.90
25250;DHT22;13201;51.148;13.738;2022-09-24T05:53:43;10.70;99.90
25250;DHT22;13201;51.148;13.738;2022-09-24T05:56:09;10.70;99.90
25250;DHT22;13201;51.148;13.738;2022-09-24T05:58:35;10.70;99.90
25250;DHT22;13201;51.148;13.738;2022-09-24T06:01:01;10.70;99.90
25250;DHT22;13201;51.148;13.738;2022-09-24T06:03:26;10.70;99.90
25250;DHT22;13201;51.148;13.738;2022-09-24T06:05:54;10.60;99.90
25250;DHT22;13201;51.148;13.738;2022-09-24T06:08:20;10.70;99.90
25250;DHT22;13201;51.148;13.738;2022-09-24T06:10:47;10.80;99.90
25250;DHT22;13201;51.148;13.738;2022-09-24T06:13:16;10.80;99.90
25250;DHT22;13201;51.148;13.738;2022-09-24T06:15:42;10.70;99.90
25250;DHT22;13201;51.148;13.738;2022-09-24T06:18:09;10.60;99.90
25250;DHT22;13201;51.148;13.738;2022-09-24T06:20:35;10.60;99.90
25250;DHT22;13201;51.148;13.738;2022-09-24T06:23:01;10.70;99.90
25250;DHT22;13201;51.148;13.738;2022-09-24T06:25:28;10.80;99.90
25250;DHT22;13201;51.148;13.738;2022-09-24T06:27:59;10.90;99.90
25250;DHT22;13201;51.148;13.738;2022-09-24T06:30:38;10.90;99.90
25250;DHT22;13201;51.148;13.738;2022-09-24T06:33:05;10.90;99.90
25250;DHT22;13201;51.148;13.738;2022-09-24T06:35:35;11.00;99.90
25250;DHT22;13201;51.148;13.738;2022-09-24T06:38:05;11.10;99.90
25250;DHT22;13201;51.148;13.738;2022-09-24T06:40:31;11.30;99.90
25250;DHT22;13201;51.148;13.738;2022-09-24T06:42:57;11.20;99.90
25250;DHT22;13201;51.148;13.738;2022-09-24T06:45:23;11.20;99.90
25250;DHT22;13201;51.148;13.738;2022-09-24T06:47:53;11.30;99.90
25250;DHT22;13201;51.148;13.738;2022-09-24T06:50:19;11.30;99.90
25250;DHT22;13201;51.148;13.738;2022-09-24T06:52:44;11.50;99.90
25250;DHT22;13201;51.148;13.738;2022-09-24T06:55:10;11.60;99.90
25250;DHT22;13201;51.148;13.738;2022-09-24T06:57:36;11.70;99.90
25250;DHT22;13201;51.148;13.738;2022-09-24T07:00:01;11.50;99.90
25250;DHT22;13201;51.148;13.738;2022-09-24T07:02:27;11.60;99.90
25250;DHT22;13201;51.148;13.738;2022-09-24T07:04:55;11.60;99.90
25250;DHT22;13201;51.148;13.738;2022-09-24T07:07:21;11.70;99.90
25250;DHT22;13201;51.148;13.738;2022-09-24T07:09:58;11.80;99.90
25250;DHT22;13201;51.148;13.738;2022-09-24T07:12:27;11.80;99.90
25250;DHT22;13201;51.148;13.738;2022-09-24T07:14:53;11.80;99.90
25250;DHT22;13201;51.148;13.738;2022-09-24T07:17:19;12.00;99.90
25250;DHT22;13201;51.148;13.738;2022-09-24T07:19:44;11.90;99.90
25250;DHT22;13201;51.148;13.738;2022-09-24T07:22:10;11.90;99.90
25250;DHT22;13201;51.148;13.738;2022-09-24T07:24:35;12.00;99.90
25250;DHT22;13201;51.148;13.738;2022-09-24T07:27:03;12.20;99.90
25250;DHT22;13201;51.148;13.738;2022-09-24T07:29:29;12.40;99.90
25250;DHT22;13201;51.148;13.738;2022-09-24T07:31:55;12.40;99.90
25250;DHT22;13201;51.148;13.738;2022-09-24T07:34:20;12.60;99.90
25250;DHT22;13201;51.148;13.738;2022-09-24T07:36:46;12.60;99.90
25250;DHT22;13201;51.148;13.738;2022-09-24T07:39:11;12.80;99.90
25250;DHT22;13201;51.148;13.738;2022-09-24T07:41:37;12.90;99.90
25250;DHT22;13201;51.148;13.738;2022-09-24T07:44:06;13.00;99.90
25250;DHT22;13201;51.148;13.738;2022-09-24T07:46:33;13.00;99.90
25250;DHT22;13201;51.148;13.738;2022-09-24T07:48:58;13.20;99.90
25250;DHT22;13201;51.148;13.738;2022-09-24T07:51:25;13.30;99.90
25250;DHT22;13201;51.148;13.738;2022-09-24T07:53:53;13.50;99.90
25250;DHT22;13201;51.148;13.738;2022-09-24T07:56:19;13.50;99.90
25250;DHT22;13201;51.148;13.738;2022-09-24T07:58:49;13.70;99.90
25250;DHT22;13201;51.148;13.738;2022-09-24T08:01:15;13.70;99.90
25250;DHT22;13201;51.148;13.738;2022-09-24T08:03:42;13.80;99.90
25250;DHT22;13201;51.148;13.738;2022-09-24T08:06:08;13.80;99.90
25250;DHT22;13201;51.148;13.738;2022-09-24T08:08:33;14.00;99.90
25250;DHT22;13201;51.148;13.738;2022-09-24T08:11:03;14.10;99.90
25250;DHT22;13201;51.148;13.738;2022-09-24T08:13:29;14.30;99.90
25250;DHT22;13201;51.148;13.738;2022-09-24T08:15:56;14.30;99.90
25250;DHT22;13201;51.148;13.738;2022-09-24T08:18:23;14.40;99.90
25250;DHT22;13201;51.148;13.738;2022-09-24T08:20:49;14.60;99.90
25250;DHT22;13201;51.148;13.738;2022-09-24T08:23:15;14.80;99.90
25250;DHT22;13201;51.148;13.738;2022-09-24T08:25:40;14.90;99.90
25250;DHT22;13201;51.148;13.738;2022-09-24T08:28:07;15.00;99.90
25250;DHT22;13201;51.148;13.738;2022-09-24T08:30:33;15.10;99.90
25250;DHT22;13201;51.148;13.738;2022-09-24T08:32:59;15.30;99.90
25250;DHT22;13201;51.148;13.738;2022-09-24T08:35:25;15.30;99.90
25250;DHT22;13201;51.148;13.738;2022-09-24T08:37:54;15.40;99.90
25250;DHT22;13201;51.148;13.738;2022-09-24T08:40:23;15.40;99.90
25250;DHT22;13201;51.148;13.738;2022-09-24T08:45:37;15.20;99.90
25250;DHT22;13201;51.148;13.738;2022-09-24T08:48:24;15.30;99.90
25250;DHT22;13201;51.148;13.738;2022-09-24T08:50:55;15.40;99.90
25250;DHT22;13201;51.148;13.738;2022-09-24T08:53:41;15.50;99.90
25250;DHT22;13201;51.148;13.738;2022-09-24T08:56:09;15.60;99.90
25250;DHT22;13201;51.148;13.738;2022-09-24T09:04:50;15.80;99.90
25250;DHT22;13201;51.148;13.738;2022-09-24T09:10:10;16.30;99.90
25250;DHT22;13201;51.148;13.738;2022-09-24T09:12:44;16.40;99.90
25250;DHT22;13201;51.148;13.738;2022-09-24T09:15:22;16.40;99.90
25250;DHT22;13201;51.148;13.738;2022-09-24T09:17:49;16.70;99.90
25250;DHT22;13201;51.148;13.738;2022-09-24T09:20:20;16.90;99.90
25250;DHT22;13201;51.148;13.738;2022-09-24T09:22:48;16.90;99.90
25250;DHT22;13201;51.148;13.738;2022-09-24T09:25:25;16.90;99.90
25250;DHT22;13201;51.148;13.738;2022-09-24T09:27:59;17.00;99.90
25250;DHT22;13201;51.148;13.738;2022-09-24T09:30:26;17.00;99.90
25250;DHT22;13201;51.148;13.738;2022-09-24T09:38:35;17.40;99.90
25250;DHT22;13201;51.148;13.738;2022-09-24T09:41:22;17.50;99.90
25250;DHT22;13201;51.148;13.738;2022-09-24T09:44:14;17.50;99.90
25250;DHT22;13201;51.148;13.738;2022-09-24T09:46:46;17.30;99.90
25250;DHT22;13201;51.148;13.738;2022-09-24T09:49:16;17.50;99.90
25250;DHT22;13201;51.148;13.738;2022-09-24T09:51:44;17.50;99.90
25250;DHT22;13201;51.148;13.738;2022-09-24T09:54:10;17.60;99.90
25250;DHT22;13201;51.148;13.738;2022-09-24T09:56:37;17.60;99.90
25250;DHT22;13201;51.148;13.738;2022-09-24T09:59:16;17.80;99.90
25250;DHT22;13201;51.148;13.738;2022-09-24T10:01:44;17.90;99.90
25250;DHT22;13201;51.148;13.738;2022-09-24T10:04:38;17.90;99.90
25250;DHT22;13201;51.148;13.738;2022-09-24T10:07:15;18.10;99.90
25250;DHT22;13201;51.148;13.738;2022-09-24T10:09:42;18.40;99.90
25250;DHT22;13201;51.148;13.738;2022-09-24T10:12:15;18.40;99.90
25250;DHT22;13201;51.148;13.738;2022-09-24T10:14:41;18.60;99.90
25250;DHT22;13201;51.148;13.738;2022-09-24T10:17:13;18.60;99.90
25250;DHT22;13201;51.148;13.738;2022-09-24T10:19:42;18.60;99.90
25250;DHT22;13201;51.148;13.738;2022-09-24T10:22:21;18.50;99.90
25250;DHT22;13201;51.148;13.738;2022-09-24T10:24:49;18.40;99.90
25250;DHT22;13201;51.148;13.738;2022-09-24T10:29:52;18.70;99.90
25250;DHT22;13201;51.148;13.738;2022-09-24T10:32:38;18.70;99.90
25250;DHT22;13201;51.148;13.738;2022-09-24T10:35:20;18.80;99.90
25250;DHT22;13201;51.148;13.738;2022-09-24T10:37:53;18.70;99.90
25250;DHT22;13201;51.148;13.738;2022-09-24T10:40:22;19.00;99.90
25250;DHT22;13201;51.148;13.738;2022-09-24T10:43:03;19.20;99.90
25250;DHT22;13201;51.148;13.738;2022-09-24T10:56:52;19.40;99.90
25250;DHT22;13201;51.148;13.738;2022-09-24T11:02:32;19.40;99.90
25250;DHT22;13201;51.148;13.738;2022-09-24T11:05:21;19.40;99.90
25250;DHT22;13201;51.148;13.738;2022-09-24T11:21:23;20.10;99.90
25250;DHT22;13201;51.148;13.738;2022-09-24T11:24:18;20.10;99.90
25250;DHT22;13201;51.148;13.738;2022-09-24T11:32:30;20.30;99.90
25250;DHT22;13201;51.148;13.738;2022-09-24T11:46:29;21.30;99.30
25250;DHT22;13201;51.148;13.738;2022-09-24T11:52:04;21.60;99.20
25250;DHT22;13201;51.148;13.738;2022-09-24T11:54:43;21.40;97.10
25250;DHT22;13201;51.148;13.738;2022-09-24T12:03:00;21.60;97.00
25250;DHT22;13201;51.148;13.738;2022-09-24T12:05:34;21.90;97.50
25250;DHT22;13201;51.148;13.738;2022-09-24T12:08:17;22.00;96.70
25250;DHT22;13201;51.148;13.738;2022-09-24T12:10:50;21.90;96.80
25250;DHT22;13201;51.148;13.738;2022-09-24T12:13:34;22.40;97.50
25250;DHT22;13201;51.148;13.738;2022-09-24T12:16:06;22.00;97.40
25250;DHT22;13201;51.148;13.738;2022-09-24T12:18:46;22.10;96.30
25250;DHT22;13201;51.148;13.738;2022-09-24T12:21:22;22.20;97.70
25250;DHT22;13201;51.148;13.738;2022-09-24T12:23:51;22.60;96.70
25250;DHT22;13201;51.148;13.738;2022-09-24T12:26:19;22.70;96.10
25250;DHT22;13201;51.148;13.738;2022-09-24T12:32:11;22.30;97.20
25250;DHT22;13201;51.148;13.738;2022-09-24T12:37:39;22.90;96.40
25250;DHT22;13201;51.148;13.738;2022-09-24T12:40:30;22.80;96.00
25250;DHT22;13201;51.148;13.738;2022-09-24T12:43:06;23.10;97.60
25250;DHT22;13201;51.148;13.738;2022-09-24T12:45:37;23.20;96.90
25250;DHT22;13201;51.148;13.738;2022-09-24T12:48:03;22.80;94.90
25250;DHT22;13201;51.148;13.738;2022-09-24T12:50:31;22.50;96.30
25250;DHT22;13201;51.148;13.738;2022-09-24T12:52:57;23.00;94.50
25250;DHT22;13201;51.148;13.738;2022-09-24T12:55:26;23.40;94.90
25250;DHT22;13201;51.148;13.738;2022-09-24T12:58:02;23.70;94.60
25250;DHT22;13201;51.148;13.738;2022-09-24T13:02:58;23.50;94.60
25250;DHT22;13201;51.148;13.738;2022-09-24T13:10:25;22.30;95.70
25250;DHT22;13201;51.148;13.738;2022-09-24T13:12:51;22.50;95.60
25250;DHT22;13201;51.148;13.738;2022-09-24T13:15:25;23.20;95.10
25250;DHT22;13201;51.148;13.738;2022-09-24T13:18:00;23.20;94.60
25250;DHT22;13201;51.148;13.738;2022-09-24T13:20:29;23.00;94.60
25250;DHT22;13201;51.148;13.738;2022-09-24T13:25:41;23.00;94.70
25250;DHT22;13201;51.148;13.738;2022-09-24T13:28:23;23.70;95.90
25250;DHT22;13201;51.148;13.738;2022-09-24T13:31:01;23.40;94.10
25250;DHT22;13201;51.148;13.738;2022-09-24T13:33:30;23.80;93.70
25250;DHT22;13201;51.148;13.738;2022-09-24T13:36:18;24.00;94.00
25250;DHT22;13201;51.148;13.738;2022-09-24T13:41:58;24.10;93.40
25250;DHT22;13201;51.148;13.738;2022-09-24T13:47:26;24.20;93.60
25250;DHT22;13201;51.148;13.738;2022-09-24T13:49:50;24.10;93.30
25250;DHT22;13201;51.148;13.738;2022-09-24T13:52:32;24.60;93.20
25250;DHT22;13201;51.148;13.738;2022-09-24T13:55:07;24.40;92.50
25250;DHT22;13201;51.148;13.738;2022-09-24T13:57:43;24.20;92.90
25250;DHT22;13201;51.148;13.738;2022-09-24T14:03:21;24.40;92.60
25250;DHT22;13201;51.148;13.738;2022-09-24T14:05:49;25.00;92.50
25250;DHT22;13201;51.148;13.738;2022-09-24T14:08:17;24.90;92.20
25250;DHT22;13201;51.148;13.738;2022-09-24T14:10:44;24.90;92.70
25250;DHT22;13201;51.148;13.738;2022-09-24T14:13:18;25.00;92.40
25250;DHT22;13201;51.148;13.738;2022-09-24T14:16:08;25.00;92.70
25250;DHT22;13201;51.148;13.738;2022-09-24T14:18:34;24.90;92.10
25250;DHT22;13201;51.148;13.738;2022-09-24T14:21:26;24.80;92.40
25250;DHT22;13201;51.148;13.738;2022-09-24T14:24:05;25.30;91.80
25250;DHT22;13201;51.148;13.738;2022-09-24T14:26:38;24.90;92.00
25250;DHT22;13201;51.148;13.738;2022-09-24T14:29:37;25.40;91.10
25250;DHT22;13201;51.148;13.738;2022-09-24T14:32:05;25.60;90.00
25250;DHT22;13201;51.148;13.738;2022-09-24T14:34:38;26.20;91.10
25250;DHT22;13201;51.148;13.738;2022-09-24T14:37:14;26.10;90.00
25250;DHT22;13201;51.148;13.738;2022-09-24T14:39:42;26.00;90.10
25250;DHT22;13201;51.148;13.738;2022-09-24T14:42:27;25.70;90.50
25250;DHT22;13201;51.148;13.738;2022-09-24T14:44:54;25.30;91.20
25250;DHT22;13201;51.148;13.738;2022-09-24T14:47:29;25.60;90.60
25250;DHT22;13201;51.148;13.738;2022-09-24T14:49:55;26.00;90.30
25250;DHT22;13201;51.148;13.738;2022-09-24T14:52:31;26.20;89.90
25250;DHT22;13201;51.148;13.738;2022-09-24T14:55:17;26.30;89.80
25250;DHT22;13201;51.148;13.738;2022-09-24T14:57:44;25.60;90.40
25250;DHT22;13201;51.148;13.738;2022-09-24T15:03:13;26.30;90.40
25250;DHT22;13201;51.148;13.738;2022-09-24T15:05:40;26.20;89.00
25250;DHT22;13201;51.148;13.738;2022-09-24T15:11:04;25.80;90.00
25250;DHT22;13201;51.148;13.738;2022-09-24T15:13:37;25.80;89.70
25250;DHT22;13201;51.148;13.738;2022-09-24T15:16:30;26.00;90.20
25250;DHT22;13201;51.148;13.738;2022-09-24T15:19:23;25.60;89.70
25250;DHT22;13201;51.148;13.738;2022-09-24T15:21:54;25.30;90.10
25250;DHT22;13201;51.148;13.738;2022-09-24T15:24:21;24.60;90.60
25250;DHT22;13201;51.148;13.738;2022-09-24T15:26:57;24.40;91.10
25250;DHT22;13201;51.148;13.738;2022-09-24T15:29:24;23.90;91.70
25250;DHT22;13201;51.148;13.738;2022-09-24T15:31:51;23.70;91.40
25250;DHT22;13201;51.148;13.738;2022-09-24T15:34:17;23.90;92.00
25250;DHT22;13201;51.148;13.738;2022-09-24T15:36:43;23.90;92.10
25250;DHT22;13201;51.148;13.738;2022-09-24T15:39:10;23.60;92.70
25250;DHT22;13201;51.148;13.738;2022-09-24T15:41:36;23.70;92.80
25250;DHT22;13201;51.148;13.738;2022-09-24T15:44:02;23.50;93.60
25250;DHT22;13201;51.148;13.738;2022-09-24T15:46:27;23.30;94.10
25250;DHT22;13201;51.148;13.738;2022-09-24T15:48:53;22.80;94.60
25250;DHT22;13201;51.148;13.738;2022-09-24T15:51:21;22.80;95.80
25250;DHT22;13201;51.148;13.738;2022-09-24T15:53:48;22.90;95.90
25250;DHT22;13201;51.148;13.738;2022-09-24T15:56:14;22.50;96.20
25250;DHT22;13201;51.148;13.738;2022-09-24T15:58:41;22.30;96.90
25250;DHT22;13201;51.148;13.738;2022-09-24T16:01:09;22.30;97.50
25250;DHT22;13201;51.148;13.738;2022-09-24T16:03:34;22.20;97.50
25250;DHT22;13201;51.148;13.738;2022-09-24T16:06:00;22.00;98.10
25250;DHT22;13201;51.148;13.738;2022-09-24T16:08:26;22.00;98.40
25250;DHT22;13201;51.148;13.738;2022-09-24T16:10:52;21.80;98.40
25250;DHT22;13201;51.148;13.738;2022-09-24T16:13:19;21.50;99.20
25250;DHT22;13201;51.148;13.738;2022-09-24T16:15:46;21.30;99.90
25250;DHT22;13201;51.148;13.738;2022-09-24T16:18:14;21.10;99.90
25250;DHT22;13201;51.148;13.738;2022-09-24T16:20:41;21.00;99.90
25250;DHT22;13201;51.148;13.738;2022-09-24T16:23:11;21.00;99.90
25250;DHT22;13201;51.148;13.738;2022-09-24T16:25:39;20.70;99.90
25250;DHT22;13201;51.148;13.738;2022-09-24T16:28:04;20.70;99.90
25250;DHT22;13201;51.148;13.738;2022-09-24T16:30:30;20.30;99.90
25250;DHT22;13201;51.148;13.738;2022-09-24T16:32:55;20.30;99.90
25250;DHT22;13201;51.148;13.738;2022-09-24T16:35:21;20.20;99.90
25250;DHT22;13201;51.148;13.738;2022-09-24T16:37:47;20.00;99.90
25250;DHT22;13201;51.148;13.738;2022-09-24T16:40:12;19.90;99.90
25250;DHT22;13201;51.148;13.738;2022-09-24T16:42:38;19.50;99.90
25250;DHT22;13201;51.148;13.738;2022-09-24T16:45:04;19.50;99.90
25250;DHT22;13201;51.148;13.738;2022-09-24T16:47:31;19.40;99.90
25250;DHT22;13201;51.148;13.738;2022-09-24T16:49:56;19.30;99.90
25250;DHT22;13201;51.148;13.738;2022-09-24T16:52:22;19.30;99.90
25250;DHT22;13201;51.148;13.738;2022-09-24T16:54:48;19.40;99.90
25250;DHT22;13201;51.148;13.738;2022-09-24T16:57:13;19.60;99.90
25250;DHT22;13201;51.148;13.738;2022-09-24T16:59:39;19.70;99.90
25250;DHT22;13201;51.148;13.738;2022-09-24T17:02:05;19.70;99.90
25250;DHT22;13201;51.148;13.738;2022-09-24T17:04:32;19.70;99.90
25250;DHT22;13201;51.148;13.738;2022-09-24T17:06:57;19.70;99.90
25250;DHT22;13201;51.148;13.738;2022-09-24T17:09:23;19.70;99.90
25250;DHT22;13201;51.148;13.738;2022-09-24T17:12:08;19.70;99.90
25250;DHT22;13201;51.148;13.738;2022-09-24T17:14:36;19.60;99.90
25250;DHT22;13201;51.148;13.738;2022-09-24T17:17:02;19.40;99.90
25250;DHT22;13201;51.148;13.738;2022-09-24T17:19:27;19.20;99.90
25250;DHT22;13201;51.148;13.738;2022-09-24T17:21:53;19.20;99.90
25250;DHT22;13201;51.148;13.738;2022-09-24T17:24:19;19.00;99.90
25250;DHT22;13201;51.148;13.738;2022-09-24T17:26:44;19.10;99.90
25250;DHT22;13201;51.148;13.738;2022-09-24T17:29:10;18.90;99.90
25250;DHT22;13201;51.148;13.738;2022-09-24T17:31:36;18.70;99.90
25250;DHT22;13201;51.148;13.738;2022-09-24T17:34:06;18.70;99.90
25250;DHT22;13201;51.148;13.738;2022-09-24T17:36:35;18.50;99.90
25250;DHT22;13201;51.148;13.738;2022-09-24T17:39:02;18.50;99.90
25250;DHT22;13201;51.148;13.738;2022-09-24T17:41:28;18.40;99.90
25250;DHT22;13201;51.148;13.738;2022-09-24T17:43:55;18.20;99.90
25250;DHT22;13201;51.148;13.738;2022-09-24T17:46:26;18.10;99.90
25250;DHT22;13201;51.148;13.738;2022-09-24T17:48:54;18.00;99.90
25250;DHT22;13201;51.148;13.738;2022-09-24T17:51:25;17.90;99.90